createdAt,value
2018-10-03T00:00:03.695Z,984.29
2018-10-03T00:01:03.724Z,984.29
2018-10-03T00:02:03.752Z,984.31
2018-10-03T00:03:03.778Z,984.33
2018-10-03T00:04:03.808Z,984.33
2018-10-03T00:05:03.831Z,984.32
2018-10-03T00:06:03.856Z,984.32
2018-10-03T00:07:03.881Z,984.4
2018-10-03T00:08:03.905Z,984.42
2018-10-03T00:09:03.931Z,984.4
2018-10-03T00:10:03.958Z,984.4
2018-10-03T00:11:03.983Z,984.36
2018-10-03T00:12:04.009Z,984.41
2018-10-03T00:13:04.037Z,984.46
2018-10-03T00:14:04.061Z,984.42
2018-10-03T00:15:04.101Z,984.42
2018-10-03T00:16:04.114Z,984.43
2018-10-03T00:17:04.140Z,984.45
2018-10-03T00:18:04.165Z,984.4
2018-10-03T00:19:04.193Z,984.43
2018-10-03T00:20:04.219Z,984.42
2018-10-03T00:21:04.245Z,984.41
2018-10-03T00:22:04.271Z,984.46
2018-10-03T00:23:04.298Z,984.51
2018-10-03T00:24:04.324Z,984.5
2018-10-03T00:25:04.350Z,984.58
2018-10-03T00:26:04.380Z,984.59
2018-10-03T00:27:04.401Z,984.62
2018-10-03T00:28:04.426Z,984.54
2018-10-03T00:29:04.452Z,984.54
2018-10-03T00:30:04.484Z,984.61
2018-10-03T00:31:04.517Z,984.65
2018-10-03T00:32:04.531Z,984.66
2018-10-03T00:33:04.557Z,984.64
2018-10-03T00:34:04.582Z,984.59
2018-10-03T00:35:04.617Z,984.69
2018-10-03T00:36:04.636Z,984.55
2018-10-03T00:37:04.663Z,984.61
2018-10-03T00:38:04.686Z,984.68
2018-10-03T00:39:04.715Z,984.61
2018-10-03T00:40:04.738Z,984.58
2018-10-03T00:41:04.765Z,984.62
2018-10-03T00:42:04.793Z,984.61
2018-10-03T00:43:04.822Z,984.64
2018-10-03T00:44:04.843Z,984.54
2018-10-03T00:45:04.869Z,984.63
2018-10-03T00:46:04.903Z,984.66
2018-10-03T00:47:04.923Z,984.69
2018-10-03T00:48:04.945Z,984.71
2018-10-03T00:49:04.974Z,984.73
2018-10-03T00:50:05.005Z,984.85
2018-10-03T00:51:05.029Z,984.8
2018-10-03T00:52:05.054Z,984.79
2018-10-03T00:53:05.076Z,984.85
2018-10-03T00:54:05.106Z,984.78
2018-10-03T00:55:05.128Z,984.74
2018-10-03T00:56:05.155Z,984.78
2018-10-03T00:57:05.182Z,984.81
2018-10-03T00:58:05.206Z,984.89
2018-10-03T00:59:05.240Z,984.9
2018-10-03T01:00:05.261Z,984.9
2018-10-03T01:01:05.290Z,984.9
2018-10-03T01:02:05.314Z,984.86
2018-10-03T01:03:05.338Z,984.87
2018-10-03T01:04:05.369Z,984.85
2018-10-03T01:05:05.392Z,984.84
2018-10-03T01:06:05.419Z,984.81
2018-10-03T01:07:05.449Z,984.81
2018-10-03T01:08:05.472Z,984.79
2018-10-03T01:09:05.499Z,984.78
2018-10-03T01:10:05.522Z,984.79
2018-10-03T01:11:05.548Z,984.85
2018-10-03T01:12:05.572Z,984.79
2018-10-03T01:13:05.602Z,984.83
2018-10-03T01:14:05.624Z,984.82
2018-10-03T01:15:05.652Z,984.83
2018-10-03T01:16:05.678Z,984.8
2018-10-03T01:17:05.704Z,984.96
2018-10-03T01:18:05.729Z,984.94
2018-10-03T01:19:05.763Z,984.89
2018-10-03T01:20:05.784Z,984.86
2018-10-03T01:21:05.812Z,984.93
2018-10-03T01:22:05.839Z,984.93
2018-10-03T01:23:05.861Z,984.97
2018-10-03T01:24:05.887Z,984.95
2018-10-03T01:25:05.916Z,985.01
2018-10-03T01:26:05.939Z,985.04
2018-10-03T01:27:05.963Z,985.02
2018-10-03T01:28:05.990Z,985.09
2018-10-03T01:29:06.018Z,985.07
2018-10-03T01:30:06.042Z,985.1
2018-10-03T01:31:06.070Z,985.12
2018-10-03T01:32:06.093Z,985.13
2018-10-03T01:33:06.120Z,985.1
2018-10-03T01:34:06.146Z,985.11
2018-10-03T01:35:06.170Z,985.07
2018-10-03T01:36:06.197Z,985.07
2018-10-03T01:37:06.224Z,985.08
2018-10-03T01:38:06.253Z,985.1
2018-10-03T01:39:06.273Z,985.05
2018-10-03T01:40:06.302Z,985.05
2018-10-03T01:41:06.327Z,985.06
2018-10-03T01:42:06.352Z,985.07
2018-10-03T01:43:06.379Z,985.05
2018-10-03T01:44:06.406Z,985.13
2018-10-03T01:45:06.429Z,985.11
2018-10-03T01:46:06.457Z,985.16
2018-10-03T01:47:06.482Z,985.12
2018-10-03T01:48:06.506Z,985.08
2018-10-03T01:49:06.538Z,985.09
2018-10-03T01:50:06.565Z,985.06
2018-10-03T01:51:06.589Z,985.1
2018-10-03T01:52:06.612Z,985.12
2018-10-03T01:53:06.637Z,985.11
2018-10-03T01:54:06.662Z,985.09
2018-10-03T01:55:06.692Z,985.09
2018-10-03T01:56:06.718Z,985.13
2018-10-03T01:57:06.740Z,985.14
2018-10-03T01:58:06.765Z,985.16
2018-10-03T01:59:06.792Z,985.15
2018-10-03T02:00:06.817Z,985.11
2018-10-03T02:01:06.843Z,985.08
2018-10-03T02:02:06.873Z,985.08
2018-10-03T02:03:06.897Z,985.1
2018-10-03T02:04:06.922Z,985.01
2018-10-03T02:05:06.946Z,984.99
2018-10-03T02:06:06.974Z,985.02
2018-10-03T02:07:06.998Z,984.99
2018-10-03T02:08:07.025Z,984.98
2018-10-03T02:09:07.051Z,984.97
2018-10-03T02:10:07.078Z,985.01
2018-10-03T02:11:07.112Z,984.99
2018-10-03T02:12:07.134Z,984.98
2018-10-03T02:13:07.154Z,984.93
2018-10-03T02:14:07.180Z,984.99
2018-10-03T02:15:07.207Z,985.05
2018-10-03T02:16:07.231Z,984.99
2018-10-03T02:17:07.259Z,985
2018-10-03T02:18:07.283Z,985.05
2018-10-03T02:19:07.310Z,985.04
2018-10-03T02:20:07.334Z,985.05
2018-10-03T02:21:07.362Z,985.04
2018-10-03T02:22:07.395Z,985.03
2018-10-03T02:23:07.416Z,985.06
2018-10-03T02:24:07.441Z,985.06
2018-10-03T02:25:07.474Z,985.08
2018-10-03T02:26:07.492Z,985.04
2018-10-03T02:27:07.517Z,985.1
2018-10-03T02:28:07.548Z,985.06
2018-10-03T02:29:07.567Z,985.1
2018-10-03T02:30:07.609Z,985.09
2018-10-03T02:31:07.620Z,985.06
2018-10-03T02:32:07.650Z,985.05
2018-10-03T02:33:07.673Z,985.13
2018-10-03T02:34:07.704Z,985.06
2018-10-03T02:35:07.731Z,985.09
2018-10-03T02:36:07.759Z,985.06
2018-10-03T02:37:07.778Z,985
2018-10-03T02:38:07.803Z,985.08
2018-10-03T02:39:07.830Z,985.08
2018-10-03T02:40:07.856Z,984.99
2018-10-03T02:41:07.881Z,985.03
2018-10-03T02:42:07.904Z,985.04
2018-10-03T02:43:07.935Z,985.01
2018-10-03T02:44:07.960Z,985.04
2018-10-03T02:45:07.988Z,985.06
2018-10-03T02:46:08.009Z,985
2018-10-03T02:47:08.035Z,985
2018-10-03T02:48:08.061Z,985.1
2018-10-03T02:49:08.089Z,985.11
2018-10-03T02:50:08.111Z,985.13
2018-10-03T02:51:08.141Z,985.14
2018-10-03T02:52:08.163Z,985.17
2018-10-03T02:53:08.190Z,985.21
2018-10-03T02:54:08.215Z,985.2
2018-10-03T02:55:08.242Z,985.22
2018-10-03T02:56:08.268Z,985.21
2018-10-03T02:57:08.302Z,985.21
2018-10-03T02:58:08.320Z,985.26
2018-10-03T02:59:08.349Z,985.21
2018-10-03T03:00:08.372Z,985.24
2018-10-03T03:01:08.401Z,985.22
2018-10-03T03:02:08.422Z,985.23
2018-10-03T03:03:08.450Z,985.21
2018-10-03T03:04:08.478Z,985.25
2018-10-03T03:05:14.767Z,985.24
2018-10-03T03:06:08.526Z,985.22
2018-10-03T03:07:08.551Z,985.23
2018-10-03T03:08:08.578Z,985.25
2018-10-03T03:09:08.618Z,985.21
2018-10-03T03:10:08.633Z,985.16
2018-10-03T03:11:08.657Z,985.18
2018-10-03T03:12:08.682Z,985.16
2018-10-03T03:13:08.711Z,985.17
2018-10-03T03:14:08.737Z,985.15
2018-10-03T03:15:08.757Z,985.14
2018-10-03T03:16:08.784Z,985.09
2018-10-03T03:17:08.819Z,985.1
2018-10-03T03:18:08.835Z,985.13
2018-10-03T03:19:08.861Z,985.14
2018-10-03T03:20:08.888Z,985.12
2018-10-03T03:21:08.916Z,985.1
2018-10-03T03:22:08.939Z,985.17
2018-10-03T03:23:08.967Z,985.15
2018-10-03T03:24:08.990Z,985.2
2018-10-03T03:25:09.016Z,985.17
2018-10-03T03:26:09.042Z,985.16
2018-10-03T03:27:09.075Z,985.18
2018-10-03T03:28:09.099Z,985.23
2018-10-03T03:29:09.124Z,985.2
2018-10-03T03:30:09.149Z,985.24
2018-10-03T03:31:09.175Z,985.17
2018-10-03T03:32:09.203Z,985.21
2018-10-03T03:33:09.222Z,985.17
2018-10-03T03:34:09.249Z,985.19
2018-10-03T03:35:09.276Z,985.27
2018-10-03T03:36:09.299Z,985.24
2018-10-03T03:37:09.327Z,985.2
2018-10-03T03:38:09.353Z,985.26
2018-10-03T03:39:09.376Z,985.25
2018-10-03T03:40:09.415Z,985.26
2018-10-03T03:41:09.435Z,985.23
2018-10-03T03:42:09.476Z,985.21
2018-10-03T03:43:09.480Z,985.2
2018-10-03T03:44:09.508Z,985.23
2018-10-03T03:45:09.532Z,985.27
2018-10-03T03:46:09.558Z,985.27
2018-10-03T03:47:09.585Z,985.25
2018-10-03T03:48:09.609Z,985.23
2018-10-03T03:49:09.634Z,985.27
2018-10-03T03:50:09.661Z,985.21
2018-10-03T03:51:09.690Z,985.19
2018-10-03T03:52:09.712Z,985.22
2018-10-03T03:53:09.740Z,985.19
2018-10-03T03:54:09.764Z,985.22
2018-10-03T03:55:09.793Z,985.25
2018-10-03T03:56:09.844Z,985.24
2018-10-03T03:57:09.848Z,985.17
2018-10-03T03:58:09.868Z,985.23
2018-10-03T03:59:09.900Z,985.21
2018-10-03T04:00:09.922Z,985.24
2018-10-03T04:01:09.949Z,985.24
2018-10-03T04:02:09.971Z,985.29
2018-10-03T04:03:09.998Z,985.21
2018-10-03T04:04:10.026Z,985.27
2018-10-03T04:05:10.049Z,985.29
2018-10-03T04:06:10.075Z,985.22
2018-10-03T04:07:10.104Z,985.26
2018-10-03T04:08:10.127Z,985.29
2018-10-03T04:09:10.153Z,985.26
2018-10-03T04:10:10.182Z,985.28
2018-10-03T04:11:10.207Z,985.32
2018-10-03T04:12:10.234Z,985.32
2018-10-03T04:13:10.279Z,985.29
2018-10-03T04:14:10.282Z,985.3
2018-10-03T04:15:10.314Z,985.26
2018-10-03T04:16:10.336Z,985.3
2018-10-03T04:17:10.370Z,985.34
2018-10-03T04:18:10.386Z,985.38
2018-10-03T04:19:10.412Z,985.45
2018-10-03T04:20:10.442Z,985.53
2018-10-03T04:21:10.465Z,985.51
2018-10-03T04:22:10.492Z,985.56
2018-10-03T04:23:10.517Z,985.56
2018-10-03T04:24:10.544Z,985.57
2018-10-03T04:25:10.569Z,985.55
2018-10-03T04:26:10.597Z,985.51
2018-10-03T04:27:10.618Z,985.56
2018-10-03T04:28:10.645Z,985.56
2018-10-03T04:29:10.672Z,985.52
2018-10-03T04:30:10.701Z,985.57
2018-10-03T04:31:10.722Z,985.64
2018-10-03T04:32:10.749Z,985.54
2018-10-03T04:33:10.778Z,985.51
2018-10-03T04:34:10.802Z,985.53
2018-10-03T04:35:10.869Z,985.57
2018-10-03T04:36:10.855Z,985.58
2018-10-03T04:37:10.880Z,985.57
2018-10-03T04:38:10.903Z,985.62
2018-10-03T04:39:10.932Z,985.62
2018-10-03T04:40:10.956Z,985.65
2018-10-03T04:41:10.984Z,985.72
2018-10-03T04:42:11.078Z,985.71
2018-10-03T04:43:11.036Z,985.72
2018-10-03T04:44:11.064Z,985.75
2018-10-03T04:45:11.087Z,985.77
2018-10-03T04:46:11.115Z,985.81
2018-10-03T04:47:11.140Z,985.75
2018-10-03T04:48:11.165Z,985.83
2018-10-03T04:49:11.274Z,985.86
2018-10-03T04:50:11.217Z,985.87
2018-10-03T04:51:11.240Z,985.89
2018-10-03T04:52:11.266Z,985.88
2018-10-03T04:53:11.296Z,985.92
2018-10-03T04:54:11.322Z,985.94
2018-10-03T04:55:11.348Z,985.91
2018-10-03T04:56:11.374Z,985.95
2018-10-03T04:57:11.399Z,985.95
2018-10-03T04:58:11.425Z,986.01
2018-10-03T04:59:11.449Z,985.94
2018-10-03T05:00:11.474Z,986.02
2018-10-03T05:01:11.499Z,986
2018-10-03T05:02:11.526Z,986
2018-10-03T05:03:11.550Z,986
2018-10-03T05:04:11.581Z,986.06
2018-10-03T05:05:11.602Z,985.99
2018-10-03T05:06:11.628Z,985.99
2018-10-03T05:07:11.654Z,985.99
2018-10-03T05:08:11.932Z,986.02
2018-10-03T05:09:11.707Z,985.99
2018-10-03T05:10:11.731Z,986.05
2018-10-03T05:11:11.785Z,986.03
2018-10-03T05:12:11.782Z,986.01
2018-10-03T05:13:11.810Z,986.06
2018-10-03T05:14:11.837Z,986.11
2018-10-03T05:15:11.859Z,986.1
2018-10-03T05:16:11.885Z,986.06
2018-10-03T05:17:11.916Z,986.08
2018-10-03T05:18:11.937Z,986.13
2018-10-03T05:19:11.968Z,986.12
2018-10-03T05:20:11.992Z,986.14
2018-10-03T05:21:12.015Z,986.08
2018-10-03T05:22:12.046Z,986.12
2018-10-03T05:23:12.066Z,986.13
2018-10-03T05:24:12.094Z,986.14
2018-10-03T05:25:12.117Z,986.15
2018-10-03T05:26:12.144Z,986.1
2018-10-03T05:27:12.169Z,986.18
2018-10-03T05:28:12.200Z,986.21
2018-10-03T05:29:12.222Z,986.14
2018-10-03T05:30:12.250Z,986.21
2018-10-03T05:31:12.273Z,986.19
2018-10-03T05:32:12.299Z,986.15
2018-10-03T05:33:12.375Z,986.2
2018-10-03T05:34:12.351Z,986.24
2018-10-03T05:35:12.376Z,986.2
2018-10-03T05:36:12.403Z,986.27
2018-10-03T05:37:12.429Z,986.23
2018-10-03T05:38:12.455Z,986.3
2018-10-03T05:39:12.481Z,986.28
2018-10-03T05:40:12.512Z,986.33
2018-10-03T05:41:12.536Z,986.34
2018-10-03T05:42:12.557Z,986.42
2018-10-03T05:43:12.583Z,986.38
2018-10-03T05:44:12.608Z,986.36
2018-10-03T05:45:12.634Z,986.34
2018-10-03T05:46:12.668Z,986.36
2018-10-03T05:47:12.685Z,986.37
2018-10-03T05:48:12.725Z,986.41
2018-10-03T05:49:12.738Z,986.41
2018-10-03T05:50:12.765Z,986.36
2018-10-03T05:51:12.791Z,986.38
2018-10-03T05:52:12.815Z,986.4
2018-10-03T05:53:12.847Z,986.4
2018-10-03T05:54:12.867Z,986.44
2018-10-03T05:55:12.893Z,986.5
2018-10-03T05:56:12.919Z,986.57
2018-10-03T05:57:12.945Z,986.56
2018-10-03T05:58:12.971Z,986.6
2018-10-03T05:59:12.996Z,986.56
2018-10-03T06:00:13.026Z,986.62
2018-10-03T06:01:13.049Z,986.6
2018-10-03T06:02:13.075Z,986.72
2018-10-03T06:03:13.110Z,986.68
2018-10-03T06:04:13.135Z,986.67
2018-10-03T06:05:13.154Z,986.68
2018-10-03T06:06:13.176Z,986.66
2018-10-03T06:07:13.210Z,986.65
2018-10-03T06:08:13.228Z,986.72
2018-10-03T06:09:13.259Z,986.76
2018-10-03T06:10:13.291Z,986.79
2018-10-03T06:11:13.310Z,986.8
2018-10-03T06:12:13.433Z,986.82
2018-10-03T06:13:13.364Z,986.82
2018-10-03T06:14:13.387Z,986.79
2018-10-03T06:15:13.409Z,986.8
2018-10-03T06:16:13.436Z,986.76
2018-10-03T06:17:13.466Z,986.8
2018-10-03T06:18:13.490Z,986.76
2018-10-03T06:19:13.514Z,986.84
2018-10-03T06:20:13.542Z,986.88
2018-10-03T06:21:13.564Z,986.86
2018-10-03T06:22:13.594Z,986.89
2018-10-03T06:23:13.618Z,986.9
2018-10-03T06:24:13.644Z,986.9
2018-10-03T06:25:13.669Z,986.92
2018-10-03T06:26:13.696Z,986.91
2018-10-03T06:27:13.719Z,986.92
2018-10-03T06:28:13.796Z,986.95
2018-10-03T06:29:13.773Z,986.96
2018-10-03T06:30:13.797Z,986.96
2018-10-03T06:31:13.829Z,986.98
2018-10-03T06:32:13.848Z,986.98
2018-10-03T06:33:13.875Z,987.02
2018-10-03T06:34:13.906Z,987.02
2018-10-03T06:35:13.928Z,987.05
2018-10-03T06:36:13.953Z,987.04
2018-10-03T06:37:13.980Z,987.1
2018-10-03T06:38:14.006Z,987.1
2018-10-03T06:39:14.059Z,987.07
2018-10-03T06:40:14.067Z,987.12
2018-10-03T06:41:14.083Z,987.12
2018-10-03T06:42:14.108Z,987.18
2018-10-03T06:43:14.135Z,987.12
2018-10-03T06:44:14.160Z,987.19
2018-10-03T06:45:14.185Z,987.2
2018-10-03T06:46:14.211Z,987.23
2018-10-03T06:47:14.237Z,987.29
2018-10-03T06:48:14.264Z,987.26
2018-10-03T06:49:14.290Z,987.26
2018-10-03T06:50:14.320Z,987.24
2018-10-03T06:51:14.357Z,987.34
2018-10-03T06:52:14.372Z,987.35
2018-10-03T06:53:14.392Z,987.38
2018-10-03T06:54:14.424Z,987.38
2018-10-03T06:55:14.444Z,987.46
2018-10-03T06:56:14.471Z,987.42
2018-10-03T06:57:14.495Z,987.48
2018-10-03T06:58:14.526Z,987.52
2018-10-03T06:59:14.552Z,987.5
2018-10-03T07:00:14.578Z,987.5
2018-10-03T07:01:14.605Z,987.52
2018-10-03T07:02:14.627Z,987.58
2018-10-03T07:03:14.655Z,987.61
2018-10-03T07:04:14.678Z,987.64
2018-10-03T07:05:14.705Z,987.59
2018-10-03T07:06:14.731Z,987.62
2018-10-03T07:07:14.756Z,987.62
2018-10-03T07:08:14.780Z,987.69
2018-10-03T07:09:14.810Z,987.67
2018-10-03T07:10:14.833Z,987.74
2018-10-03T07:11:14.859Z,987.76
2018-10-03T07:12:14.888Z,987.79
2018-10-03T07:13:15.034Z,987.77
2018-10-03T07:14:14.941Z,987.73
2018-10-03T07:15:15.572Z,987.75
2018-10-03T07:16:14.991Z,987.86
2018-10-03T07:17:15.025Z,987.87
2018-10-03T07:18:15.041Z,987.88
2018-10-03T07:19:15.115Z,987.97
2018-10-03T07:20:15.165Z,987.93
2018-10-03T07:21:15.123Z,987.93
2018-10-03T07:22:15.147Z,987.94
2018-10-03T07:23:15.174Z,987.94
2018-10-03T07:24:15.205Z,987.97
2018-10-03T07:25:15.226Z,987.97
2018-10-03T07:26:15.394Z,987.87
2018-10-03T07:27:15.275Z,987.92
2018-10-03T07:28:15.305Z,987.96
2018-10-03T07:29:15.327Z,987.96
2018-10-03T07:30:15.358Z,987.94
2018-10-03T07:31:15.380Z,988.06
2018-10-03T07:32:15.403Z,988.16
2018-10-03T07:33:15.433Z,988.06
2018-10-03T07:34:15.457Z,988.09
2018-10-03T07:35:15.480Z,988.08
2018-10-03T07:36:15.509Z,988.13
2018-10-03T07:37:15.532Z,988.13
2018-10-03T07:38:15.558Z,988.2
2018-10-03T07:39:15.584Z,988.18
2018-10-03T07:40:15.609Z,988.2
2018-10-03T07:41:15.635Z,988.11
2018-10-03T07:42:15.662Z,988.17
2018-10-03T07:43:15.689Z,988.15
2018-10-03T07:44:15.711Z,988.18
2018-10-03T07:45:15.738Z,988.23
2018-10-03T07:46:15.767Z,988.26
2018-10-03T07:47:15.792Z,988.32
2018-10-03T07:48:15.817Z,988.23
2018-10-03T07:49:15.843Z,988.26
2018-10-03T07:50:15.869Z,988.36
2018-10-03T07:51:15.890Z,988.29
2018-10-03T07:52:15.920Z,988.36
2018-10-03T07:53:16.065Z,988.41
2018-10-03T07:54:15.968Z,988.41
2018-10-03T07:55:15.998Z,988.35
2018-10-03T07:56:16.055Z,988.44
2018-10-03T07:58:16.075Z,988.46
2018-10-03T07:59:16.504Z,988.53
2018-10-03T08:00:16.125Z,988.56
2018-10-03T08:01:16.153Z,988.59
2018-10-03T08:02:16.174Z,988.63
2018-10-03T08:03:16.205Z,988.58
2018-10-03T08:04:16.226Z,988.56
2018-10-03T08:05:16.254Z,988.64
2018-10-03T08:06:16.278Z,988.57
2018-10-03T08:07:16.308Z,988.6
2018-10-03T08:08:16.338Z,988.64
2018-10-03T08:09:16.364Z,988.66
2018-10-03T08:10:16.379Z,988.66
2018-10-03T08:11:16.404Z,988.69
2018-10-03T08:12:16.431Z,988.72
2018-10-03T08:13:16.455Z,988.69
2018-10-03T08:14:16.490Z,988.69
2018-10-03T08:15:16.510Z,988.75
2018-10-03T08:16:16.533Z,988.78
2018-10-03T08:17:16.571Z,988.81
2018-10-03T08:18:16.586Z,988.86
2018-10-03T08:19:16.612Z,988.88
2018-10-03T08:20:16.638Z,988.81
2018-10-03T08:21:16.661Z,988.88
2018-10-03T08:22:16.699Z,988.84
2018-10-03T08:23:16.714Z,988.86
2018-10-03T08:24:16.747Z,988.86
2018-10-03T08:25:16.762Z,988.92
2018-10-03T08:26:16.788Z,988.88
2018-10-03T08:27:16.814Z,988.94
2018-10-03T08:28:16.847Z,988.98
2018-10-03T08:29:16.868Z,988.95
2018-10-03T08:30:16.892Z,989.08
2018-10-03T08:31:16.920Z,989.06
2018-10-03T08:32:17.026Z,989.03
2018-10-03T08:33:16.996Z,989.01
2018-10-03T08:34:17.005Z,989.02
2018-10-03T08:35:17.022Z,989.03
2018-10-03T08:36:17.051Z,989.05
2018-10-03T08:37:17.073Z,989.01
2018-10-03T08:38:17.098Z,989.1
2018-10-03T08:39:17.130Z,989.07
2018-10-03T08:40:17.149Z,989.07
2018-10-03T08:41:17.171Z,989.05
2018-10-03T08:42:17.200Z,989.08
2018-10-03T08:43:17.224Z,989.13
2018-10-03T08:44:17.251Z,989.13
2018-10-03T08:45:17.281Z,989.11
2018-10-03T08:46:17.301Z,989.1
2018-10-03T08:47:17.327Z,989.08
2018-10-03T08:48:17.354Z,989.11
2018-10-03T08:49:17.387Z,989.19
2018-10-03T08:50:17.402Z,989.09
2018-10-03T08:51:17.430Z,989.1
2018-10-03T08:52:17.455Z,989.1
2018-10-03T08:53:17.482Z,989.17
2018-10-03T08:54:17.507Z,989.3
2018-10-03T08:55:17.533Z,989.26
2018-10-03T08:56:17.561Z,989.22
2018-10-03T08:57:17.583Z,989.22
2018-10-03T08:58:17.768Z,989.34
2018-10-03T08:59:17.635Z,989.33
2018-10-03T09:00:17.661Z,989.32
2018-10-03T09:01:17.685Z,989.29
2018-10-03T09:02:17.712Z,989.36
2018-10-03T09:03:17.738Z,989.34
2018-10-03T09:04:17.763Z,989.29
2018-10-03T09:05:17.787Z,989.34
2018-10-03T09:06:17.815Z,989.35
2018-10-03T09:07:17.840Z,989.4
2018-10-03T09:08:17.863Z,989.38
2018-10-03T09:09:17.894Z,989.42
2018-10-03T09:10:17.914Z,989.45
2018-10-03T09:11:17.944Z,989.46
2018-10-03T09:12:17.966Z,989.46
2018-10-03T09:13:17.991Z,989.48
2018-10-03T09:14:18.016Z,989.53
2018-10-03T09:15:18.041Z,989.53
2018-10-03T09:16:18.068Z,989.45
2018-10-03T09:17:18.096Z,989.43
2018-10-03T09:18:18.122Z,989.56
2018-10-03T09:19:18.147Z,989.55
2018-10-03T09:20:18.168Z,989.58
2018-10-03T09:21:18.221Z,989.61
2018-10-03T09:22:18.224Z,989.66
2018-10-03T09:23:18.251Z,989.62
2018-10-03T09:24:18.274Z,989.71
2018-10-03T09:25:18.301Z,989.79
2018-10-03T09:26:18.328Z,989.8
2018-10-03T09:27:18.350Z,989.83
2018-10-03T09:28:18.440Z,989.81
2018-10-03T09:29:18.401Z,989.83
2018-10-03T09:30:18.424Z,989.88
2018-10-03T09:31:18.456Z,989.9
2018-10-03T09:32:18.476Z,989.81
2018-10-03T09:33:18.504Z,989.88
2018-10-03T09:34:18.527Z,989.91
2018-10-03T09:35:18.551Z,989.87
2018-10-03T09:36:18.577Z,989.87
2018-10-03T09:37:18.607Z,989.86
2018-10-03T09:38:18.629Z,989.81
2018-10-03T09:39:18.654Z,989.84
2018-10-03T09:40:18.683Z,989.87
2018-10-03T09:41:18.708Z,989.87
2018-10-03T09:42:18.731Z,989.86
2018-10-03T09:43:18.757Z,989.82
2018-10-03T09:44:18.785Z,989.91
2018-10-03T09:45:18.810Z,989.89
2018-10-03T09:46:18.831Z,989.95
2018-10-03T09:47:18.863Z,989.91
2018-10-03T09:48:18.882Z,989.89
2018-10-03T09:49:18.912Z,989.93
2018-10-03T09:50:18.933Z,989.97
2018-10-03T09:51:18.959Z,990.03
2018-10-03T09:52:18.988Z,989.97
2018-10-03T09:53:19.012Z,989.95
2018-10-03T09:54:19.044Z,990.06
2018-10-03T09:55:19.063Z,990.02
2018-10-03T09:56:19.092Z,989.91
2018-10-03T09:58:19.138Z,989.97
2018-10-03T09:59:19.163Z,990.08
2018-10-03T10:00:19.251Z,990.07
2018-10-03T10:01:19.217Z,990.1
2018-10-03T10:02:19.239Z,990.11
2018-10-03T10:03:19.266Z,990.12
2018-10-03T10:04:19.290Z,990.14
2018-10-03T10:05:19.317Z,990.19
2018-10-03T10:06:19.342Z,990.13
2018-10-03T10:07:19.370Z,990.18
2018-10-03T10:08:19.393Z,990.16
2018-10-03T10:09:19.427Z,990.13
2018-10-03T10:10:19.488Z,990.11
2018-10-03T10:11:19.561Z,990.1
2018-10-03T10:12:19.496Z,990.13
2018-10-03T10:13:19.530Z,990.16
2018-10-03T10:14:19.552Z,990.2
2018-10-03T10:15:19.573Z,990.19
2018-10-03T10:16:19.598Z,990.11
2018-10-03T10:17:19.622Z,990.11
2018-10-03T10:18:19.647Z,990.13
2018-10-03T10:19:19.676Z,990.19
2018-10-03T10:20:19.701Z,990.12
2018-10-03T10:21:19.771Z,990.11
2018-10-03T10:22:19.755Z,990.11
2018-10-03T10:23:19.776Z,990.1
2018-10-03T10:24:19.802Z,990.05
2018-10-03T10:25:19.825Z,990.16
2018-10-03T10:26:19.852Z,990.14
2018-10-03T10:27:19.881Z,990.14
2018-10-03T10:28:19.904Z,990.23
2018-10-03T10:29:19.931Z,990.23
2018-10-03T10:30:19.959Z,990.29
2018-10-03T10:31:19.982Z,990.46
2018-10-03T10:32:20.125Z,990.34
2018-10-03T10:33:20.031Z,990.31
2018-10-03T10:34:20.064Z,990.31
2018-10-03T10:35:20.086Z,990.39
2018-10-03T10:36:20.109Z,990.31
2018-10-03T10:37:20.144Z,990.42
2018-10-03T10:38:20.160Z,990.42
2018-10-03T10:39:20.187Z,990.48
2018-10-03T10:40:20.307Z,990.44
2018-10-03T10:41:20.461Z,990.46
2018-10-03T10:42:20.264Z,990.5
2018-10-03T10:43:20.413Z,990.52
2018-10-03T10:44:20.316Z,990.5
2018-10-03T10:45:20.340Z,990.48
2018-10-03T10:46:20.371Z,990.48
2018-10-03T10:47:20.392Z,990.55
2018-10-03T10:48:20.417Z,990.49
2018-10-03T10:49:20.444Z,990.52
2018-10-03T10:50:20.547Z,990.55
2018-10-03T10:51:20.493Z,990.54
2018-10-03T10:52:20.522Z,990.55
2018-10-03T10:53:20.545Z,990.49
2018-10-03T10:54:20.568Z,990.53
2018-10-03T10:55:20.601Z,990.6
2018-10-03T10:56:20.623Z,990.66
2018-10-03T10:57:20.656Z,990.65
2018-10-03T10:58:20.672Z,990.59
2018-10-03T10:59:20.696Z,990.54
2018-10-03T11:00:20.724Z,990.51
2018-10-03T11:01:20.750Z,990.62
2018-10-03T11:02:20.774Z,990.56
2018-10-03T11:03:20.803Z,990.58
2018-10-03T11:04:20.826Z,990.61
2018-10-03T11:05:20.851Z,990.63
2018-10-03T11:06:21.223Z,990.57
2018-10-03T11:07:20.905Z,990.66
2018-10-03T11:08:20.935Z,990.62
2018-10-03T11:09:20.955Z,990.63
2018-10-03T11:10:20.981Z,990.6
2018-10-03T11:11:21.007Z,990.54
2018-10-03T11:12:21.032Z,990.52
2018-10-03T11:13:21.057Z,990.52
2018-10-03T11:14:21.082Z,990.47
2018-10-03T11:15:21.115Z,990.5
2018-10-03T11:16:21.132Z,990.46
2018-10-03T11:17:21.158Z,990.49
2018-10-03T11:18:21.183Z,990.56
2018-10-03T11:19:21.209Z,990.51
2018-10-03T11:20:21.234Z,990.52
2018-10-03T11:21:21.263Z,990.5
2018-10-03T11:22:21.285Z,990.49
2018-10-03T11:23:21.347Z,990.56
2018-10-03T11:24:21.549Z,990.56
2018-10-03T11:25:21.363Z,990.53
2018-10-03T11:26:21.388Z,990.6
2018-10-03T11:27:21.415Z,990.58
2018-10-03T11:28:21.440Z,990.51
2018-10-03T11:29:21.466Z,990.52
2018-10-03T11:30:21.491Z,990.57
2018-10-03T11:31:21.514Z,990.54
2018-10-03T11:32:21.544Z,990.53
2018-10-03T11:33:21.568Z,990.56
2018-10-03T11:34:21.593Z,990.61
2018-10-03T11:35:21.623Z,990.65
2018-10-03T11:36:21.645Z,990.67
2018-10-03T11:37:21.669Z,990.69
2018-10-03T11:38:21.745Z,990.64
2018-10-03T11:39:21.720Z,990.71
2018-10-03T11:40:21.745Z,990.66
2018-10-03T11:41:21.773Z,990.69
2018-10-03T11:42:21.795Z,990.77
2018-10-03T11:43:21.822Z,990.66
2018-10-03T11:44:21.850Z,990.69
2018-10-03T11:45:21.872Z,990.65
2018-10-03T11:46:21.897Z,990.66
2018-10-03T11:47:21.926Z,990.67
2018-10-03T11:48:21.948Z,990.65
2018-10-03T11:49:21.978Z,990.59
2018-10-03T11:50:21.999Z,990.68
2018-10-03T11:51:22.027Z,990.68
2018-10-03T11:52:22.054Z,990.69
2018-10-03T11:53:22.077Z,990.67
2018-10-03T11:54:22.103Z,990.66
2018-10-03T11:55:22.127Z,990.6
2018-10-03T11:56:22.156Z,990.64
2018-10-03T11:57:22.181Z,990.68
2018-10-03T11:58:22.205Z,990.69
2018-10-03T11:59:22.273Z,990.69
2018-10-03T12:00:22.261Z,990.7
2018-10-03T12:01:22.279Z,990.71
2018-10-03T12:02:22.311Z,990.67
2018-10-03T12:03:22.371Z,990.68
2018-10-03T12:04:22.359Z,990.72
2018-10-03T12:05:22.384Z,990.74
2018-10-03T12:06:22.418Z,990.73
2018-10-03T12:07:22.433Z,990.7
2018-10-03T12:08:22.461Z,990.74
2018-10-03T12:09:22.574Z,990.68
2018-10-03T12:10:22.528Z,990.73
2018-10-03T12:11:22.540Z,990.71
2018-10-03T12:12:22.567Z,990.76
2018-10-03T12:13:22.589Z,990.73
2018-10-03T12:14:22.615Z,990.71
2018-10-03T12:15:22.638Z,990.72
2018-10-03T12:16:22.673Z,990.73
2018-10-03T12:17:22.691Z,990.77
2018-10-03T12:18:22.721Z,990.74
2018-10-03T12:19:22.743Z,990.77
2018-10-03T12:20:22.767Z,990.74
2018-10-03T12:21:22.792Z,990.75
2018-10-03T12:22:22.818Z,990.74
2018-10-03T12:23:22.843Z,990.75
2018-10-03T12:24:22.869Z,990.79
2018-10-03T12:25:22.893Z,990.84
2018-10-03T12:26:22.921Z,990.8
2018-10-03T12:27:22.951Z,990.76
2018-10-03T12:28:22.974Z,990.79
2018-10-03T12:29:22.999Z,990.8
2018-10-03T12:30:23.036Z,990.82
2018-10-03T12:31:23.051Z,990.79
2018-10-03T12:32:23.076Z,990.84
2018-10-03T12:33:23.180Z,990.82